createdAt,value
2018-07-28T00:01:44.397Z,8.00
2018-07-28T00:04:13.146Z,7.50
2018-07-28T00:06:42.301Z,8.10
2018-07-28T00:09:12.429Z,7.20
2018-07-28T00:11:41.259Z,8.63
2018-07-28T00:14:10.353Z,7.67
2018-07-28T00:16:39.521Z,8.33
2018-07-28T00:19:10.352Z,7.83
2018-07-28T00:21:39.178Z,9.77
2018-07-28T00:24:08.661Z,7.63
2018-07-28T00:26:38.579Z,7.57
2018-07-28T00:29:08.400Z,7.67
2018-07-28T00:31:38.569Z,7.43
2018-07-28T00:34:09.558Z,8.33
2018-07-28T00:36:44.849Z,8.83
2018-07-28T00:39:14.859Z,8.20
2018-07-28T00:41:44.167Z,8.30
2018-07-28T00:44:13.247Z,7.60
2018-07-28T00:46:41.957Z,8.70
2018-07-28T00:49:11.054Z,8.67
2018-07-28T00:51:39.782Z,8.10
2018-07-28T00:54:08.619Z,8.73
2018-07-28T00:56:37.415Z,8.27
2018-07-28T00:59:06.831Z,7.80
2018-07-28T01:01:35.617Z,8.33
2018-07-28T01:04:04.508Z,8.70
2018-07-28T01:06:33.315Z,8.63
2018-07-28T01:09:02.151Z,7.87
2018-07-28T01:11:31.002Z,8.53
2018-07-28T01:14:00.957Z,8.87
2018-07-28T01:16:29.968Z,8.20
2018-07-28T01:18:58.992Z,8.50
2018-07-28T01:21:28.134Z,9.00
2018-07-28T01:23:57.134Z,9.50
2018-07-28T01:26:26.075Z,8.70
2018-07-28T01:29:00.208Z,8.00
2018-07-28T01:31:29.362Z,7.87
2018-07-28T01:33:58.274Z,8.57
2018-07-28T01:36:28.022Z,9.03
2018-07-28T01:38:56.807Z,7.90
2018-07-28T01:41:25.519Z,11.03
2018-07-28T01:43:54.303Z,7.50
2018-07-28T01:46:23.450Z,7.60
2018-07-28T01:48:52.852Z,8.80
2018-07-28T01:51:22.299Z,8.90
2018-07-28T01:53:51.351Z,7.50
2018-07-28T01:56:20.508Z,7.90
2018-07-28T01:58:49.945Z,8.53
2018-07-28T02:01:18.857Z,8.13
2018-07-28T02:03:48.141Z,8.27
2018-07-28T02:06:17.941Z,8.40
2018-07-28T02:08:47.085Z,9.50
2018-07-28T02:11:16.392Z,8.37
2018-07-28T02:13:46.285Z,9.67
2018-07-28T02:16:15.038Z,9.77
2018-07-28T02:18:43.931Z,8.93
2018-07-28T02:21:13.288Z,9.07
2018-07-28T02:23:42.214Z,8.13
2018-07-28T02:26:11.722Z,8.50
2018-07-28T02:28:40.707Z,9.50
2018-07-28T02:31:09.416Z,8.83
2018-07-28T02:33:38.489Z,8.40
2018-07-28T02:36:07.527Z,9.93
2018-07-28T02:38:36.265Z,8.63
2018-07-28T02:41:05.038Z,9.13
2018-07-28T02:43:34.318Z,9.47
2018-07-28T02:46:03.090Z,9.90
2018-07-28T02:48:31.810Z,8.00
2018-07-28T02:51:00.773Z,8.27
2018-07-28T02:53:29.515Z,8.33
2018-07-28T02:55:58.618Z,9.37
2018-07-28T02:58:27.551Z,8.10
2018-07-28T03:00:56.954Z,8.30
2018-07-28T03:03:26.067Z,8.00
2018-07-28T03:05:58.465Z,7.60
2018-07-28T03:08:27.428Z,8.90
2018-07-28T03:10:56.429Z,9.20
2018-07-28T03:13:25.290Z,7.77
2018-07-28T03:15:54.183Z,9.27
2018-07-28T03:18:24.107Z,8.03
2018-07-28T03:20:52.935Z,9.53
2018-07-28T03:23:21.846Z,9.30
2018-07-28T03:25:50.597Z,8.20
2018-07-28T03:28:20.240Z,9.03
2018-07-28T03:30:49.091Z,8.40
2018-07-28T03:33:17.894Z,8.50
2018-07-28T03:35:47.071Z,7.80
2018-07-28T03:38:15.922Z,8.90
2018-07-28T03:40:44.707Z,8.50
2018-07-28T03:43:14.050Z,9.80
2018-07-28T03:45:42.854Z,8.10
2018-07-28T03:48:11.688Z,7.50
2018-07-28T03:50:40.385Z,8.40
2018-07-28T03:53:10.246Z,8.17
2018-07-28T03:55:39.077Z,7.97
2018-07-28T03:58:08.191Z,8.20
2018-07-28T04:00:37.222Z,7.73
2018-07-28T04:03:06.293Z,8.13
2018-07-28T04:05:35.210Z,8.70
2018-07-28T04:08:03.938Z,8.23
2018-07-28T04:10:32.856Z,7.80
2018-07-28T04:13:02.358Z,7.37
2018-07-28T04:15:31.105Z,8.37
2018-07-28T04:17:59.789Z,8.10
2018-07-28T04:20:29.123Z,9.13
2018-07-28T04:22:58.428Z,7.57
2018-07-28T04:25:27.190Z,7.20
2018-07-28T04:27:56.004Z,8.07
2018-07-28T04:30:25.478Z,8.60
2018-07-28T04:32:54.544Z,8.60
2018-07-28T04:35:23.348Z,7.80
2018-07-28T04:37:52.046Z,7.50
2018-07-28T04:40:21.099Z,8.13
2018-07-28T04:42:50.163Z,7.30
2018-07-28T04:45:18.962Z,7.70
2018-07-28T04:47:47.680Z,7.80
2018-07-28T04:50:16.401Z,8.20
2018-07-28T04:52:45.280Z,6.53
2018-07-28T04:55:14.545Z,8.60
2018-07-28T04:57:43.604Z,8.37
2018-07-28T05:00:12.686Z,7.80
2018-07-28T05:02:41.667Z,6.50
2018-07-28T05:05:10.675Z,7.63
2018-07-28T05:07:39.908Z,7.57
2018-07-28T05:10:08.929Z,7.93
2018-07-28T05:12:37.954Z,7.47
2018-07-28T05:15:07.723Z,7.87
2018-07-28T05:17:36.674Z,7.20
2018-07-28T05:20:05.749Z,7.73
2018-07-28T05:22:35.137Z,7.47
2018-07-28T05:25:04.287Z,8.60
2018-07-28T05:27:33.290Z,8.70
2018-07-28T05:30:02.275Z,8.10
2018-07-28T05:32:31.573Z,7.30
2018-07-28T05:35:00.578Z,8.30
2018-07-28T05:37:29.844Z,8.97
2018-07-28T05:39:58.943Z,8.43
2018-07-28T05:42:28.272Z,7.33
2018-07-28T05:44:56.955Z,8.33
2018-07-28T05:47:25.672Z,8.30
2018-07-28T05:49:54.701Z,8.20
2018-07-28T05:52:24.410Z,7.70
2018-07-28T05:54:53.635Z,7.80
2018-07-28T05:57:22.712Z,8.60
2018-07-28T05:59:51.425Z,7.60
2018-07-28T06:02:20.268Z,7.77
2018-07-28T06:04:49.525Z,7.73
2018-07-28T06:07:18.609Z,8.97
2018-07-28T06:09:47.336Z,8.30
2018-07-28T06:12:16.687Z,7.93
2018-07-28T06:14:45.445Z,7.37
2018-07-28T06:17:14.176Z,8.60
2018-07-28T06:19:43.246Z,8.00
2018-07-28T06:22:12.196Z,8.10
2018-07-28T06:24:40.896Z,9.33
2018-07-28T06:27:09.664Z,8.30
2018-07-28T06:29:38.584Z,7.50
2018-07-28T06:32:08.825Z,7.90
2018-07-28T06:34:37.674Z,8.97
2018-07-28T06:37:06.498Z,8.13
2018-07-28T06:39:35.589Z,7.20
2018-07-28T06:42:04.967Z,7.70
2018-07-28T06:44:34.319Z,8.13
2018-07-28T06:47:03.142Z,8.23
2018-07-28T06:49:32.237Z,8.50
2018-07-28T06:52:01.647Z,8.10
2018-07-28T06:54:32.668Z,9.20
2018-07-28T06:57:01.777Z,8.40
2018-07-28T06:59:31.448Z,9.17
2018-07-28T07:02:02.710Z,8.10
2018-07-28T07:04:31.608Z,7.90
2018-07-28T07:07:02.544Z,8.63
2018-07-28T07:09:31.736Z,8.30
2018-07-28T07:12:01.773Z,8.70
2018-07-28T07:14:30.590Z,9.03
2018-07-28T07:16:59.540Z,7.50
2018-07-28T07:19:28.740Z,7.70
2018-07-28T07:21:57.541Z,8.47
2018-07-28T07:24:26.587Z,8.60
2018-07-28T07:26:55.311Z,7.43
2018-07-28T07:29:24.104Z,7.67
2018-07-28T07:31:52.819Z,7.57
2018-07-28T07:34:21.566Z,8.23
2018-07-28T07:36:50.336Z,7.27
2018-07-28T07:39:19.082Z,7.70
2018-07-28T07:41:47.875Z,6.90
2018-07-28T07:44:16.907Z,6.53
2018-07-28T07:46:46.183Z,7.30
2018-07-28T07:49:14.968Z,7.03
2018-07-28T07:51:44.034Z,7.67
2018-07-28T07:54:13.039Z,7.30
2018-07-28T07:56:41.986Z,6.80
2018-07-28T07:59:10.780Z,7.33
2018-07-28T08:01:39.795Z,6.97
2018-07-28T08:04:08.755Z,6.47
2018-07-28T08:06:37.887Z,7.20
2018-07-28T08:09:09.050Z,7.90
2018-07-28T08:11:38.077Z,7.47
2018-07-28T08:14:06.778Z,8.33
2018-07-28T08:16:35.454Z,7.70
2018-07-28T08:19:04.628Z,7.70
2018-07-28T08:21:33.364Z,7.53
2018-07-28T08:24:02.650Z,8.33
2018-07-28T08:26:31.983Z,8.93
2018-07-28T08:29:00.734Z,8.13
2018-07-28T08:31:29.777Z,8.70
2018-07-28T08:33:58.542Z,8.03
2018-07-28T08:36:33.915Z,8.67
2018-07-28T08:39:02.624Z,8.10
2018-07-28T08:41:31.544Z,8.27
2018-07-28T08:44:00.721Z,8.17
2018-07-28T08:46:29.920Z,8.73
2018-07-28T08:48:59.207Z,7.83
2018-07-28T08:51:27.885Z,8.40
2018-07-28T08:53:56.590Z,8.87
2018-07-28T08:56:25.817Z,8.87
2018-07-28T08:58:54.523Z,8.40
2018-07-28T09:01:26.481Z,6.97
2018-07-28T09:03:55.265Z,7.90
2018-07-28T09:06:24.460Z,7.50
2018-07-28T09:08:53.365Z,6.43
2018-07-28T09:11:22.403Z,5.10
2018-07-28T09:13:51.121Z,4.73
2018-07-28T09:16:19.824Z,3.87
2018-07-28T09:18:48.933Z,4.13
2018-07-28T09:21:17.870Z,4.00
2018-07-28T09:23:46.586Z,3.93
2018-07-28T09:26:15.647Z,4.63
2018-07-28T09:28:44.832Z,4.53
2018-07-28T09:31:13.858Z,4.50
2018-07-28T09:33:42.574Z,3.37
2018-07-28T09:36:11.309Z,4.60
2018-07-28T09:38:40.581Z,4.47
2018-07-28T09:41:09.312Z,5.20
2018-07-28T09:43:38.351Z,4.20
2018-07-28T09:46:07.899Z,4.70
2018-07-28T09:48:36.635Z,4.67
2018-07-28T09:51:05.993Z,4.27
2018-07-28T09:53:34.926Z,5.33
2018-07-28T09:56:03.628Z,4.10
2018-07-28T09:58:32.686Z,4.80
2018-07-28T10:01:21.975Z,4.63
2018-07-28T10:03:50.838Z,5.00
2018-07-28T10:06:19.677Z,4.60
2018-07-28T10:08:48.627Z,4.93
2018-07-28T10:11:17.387Z,4.63
2018-07-28T10:13:46.375Z,4.33
2018-07-28T10:16:15.818Z,4.13
2018-07-28T10:18:44.590Z,5.43
2018-07-28T10:21:13.263Z,4.40
2018-07-28T10:23:42.380Z,5.00
2018-07-28T10:26:11.521Z,5.47
2018-07-28T10:28:40.253Z,5.23
2018-07-28T10:31:08.969Z,4.40
2018-07-28T10:33:37.672Z,4.63
2018-07-28T10:36:07.137Z,4.30
2018-07-28T10:38:35.864Z,3.87
2018-07-28T10:41:05.363Z,3.87
2018-07-28T10:43:34.396Z,3.63
2018-07-28T10:46:03.540Z,4.20
2018-07-28T10:48:32.232Z,3.20
2018-07-28T10:51:01.333Z,3.10
2018-07-28T10:53:31.011Z,2.97
2018-07-28T10:56:00.155Z,3.23
2018-07-28T10:58:29.209Z,3.53
2018-07-28T11:00:58.364Z,3.00
2018-07-28T11:03:27.113Z,3.50
2018-07-28T11:05:55.830Z,3.43
2018-07-28T11:08:24.593Z,3.87
2018-07-28T11:10:53.324Z,3.60
2018-07-28T11:13:22.051Z,3.37
2018-07-28T11:15:50.787Z,3.60
2018-07-28T11:18:19.582Z,3.70
2018-07-28T11:20:48.601Z,3.47
2018-07-28T11:23:28.249Z,3.60
2018-07-28T11:25:57.224Z,3.50
2018-07-28T11:28:25.940Z,3.30
2018-07-28T11:30:54.643Z,4.90
2018-07-28T11:33:35.238Z,5.40
2018-07-28T11:36:14.885Z,4.73
2018-07-28T11:40:56.647Z,5.57
2018-07-28T11:44:35.870Z,6.00
2018-07-28T11:47:04.940Z,6.00
2018-07-28T11:49:33.641Z,4.50
2018-07-28T11:52:02.403Z,5.63
2018-07-28T11:54:31.129Z,5.60
2018-07-28T11:56:59.963Z,3.83
2018-07-28T11:59:29.028Z,4.30
2018-07-28T12:01:57.823Z,4.93
2018-07-28T12:04:26.809Z,4.33
2018-07-28T12:06:55.680Z,5.53
2018-07-28T12:09:24.399Z,5.20
2018-07-28T12:11:53.111Z,4.37
2018-07-28T12:14:22.313Z,4.40
2018-07-28T12:16:51.357Z,3.97
2018-07-28T12:19:20.323Z,4.60
2018-07-28T12:21:49.051Z,4.30
2018-07-28T12:24:17.771Z,4.17
2018-07-28T12:26:46.917Z,4.57
2018-07-28T12:29:15.630Z,3.70
2018-07-28T12:31:44.688Z,3.97
2018-07-28T12:34:13.400Z,3.77
2018-07-28T12:36:42.132Z,4.10
2018-07-28T12:39:12.085Z,3.80
2018-07-28T12:41:41.105Z,3.70
2018-07-28T12:44:10.113Z,4.03
2018-07-28T12:46:38.863Z,3.80
2018-07-28T12:49:07.907Z,3.53
2018-07-28T12:51:43.387Z,4.10
2018-07-28T12:54:12.135Z,3.70
2018-07-28T12:56:40.913Z,4.10
2018-07-28T12:59:09.629Z,4.80
2018-07-28T13:01:38.813Z,3.90
2018-07-28T13:04:08.260Z,4.73
2018-07-28T13:06:36.979Z,4.00
2018-07-28T13:09:08.518Z,4.57
2018-07-28T13:11:37.572Z,3.60
2018-07-28T13:14:06.257Z,4.10
2018-07-28T13:16:35.208Z,4.30
2018-07-28T13:19:04.254Z,4.67
2018-07-28T13:21:33.330Z,6.10
2018-07-28T13:24:02.272Z,5.00
2018-07-28T13:26:31.053Z,5.40
2018-07-28T13:28:59.787Z,4.87
2018-07-28T13:31:29.125Z,4.50
2018-07-28T13:33:58.145Z,4.53
2018-07-28T13:36:27.526Z,5.27
2018-07-28T13:38:56.762Z,5.63
2018-07-28T13:41:25.713Z,5.53
2018-07-28T13:43:54.661Z,4.47
2018-07-28T13:46:23.696Z,5.43
2018-07-28T13:48:52.387Z,6.00
2018-07-28T13:51:21.144Z,5.77
2018-07-28T13:53:50.393Z,5.00
2018-07-28T13:56:19.416Z,5.20
2018-07-28T13:58:48.932Z,5.10
2018-07-28T14:01:17.665Z,5.60
2018-07-28T14:03:46.402Z,5.07
2018-07-28T14:06:15.859Z,4.00
2018-07-28T14:08:44.953Z,4.57
2018-07-28T14:11:14.012Z,5.27
2018-07-28T14:13:42.786Z,4.80
2018-07-28T14:16:11.514Z,4.60
2018-07-28T14:18:40.532Z,5.17
2018-07-28T14:21:09.261Z,5.00
2018-07-28T14:23:37.971Z,5.40
2018-07-28T14:26:06.797Z,4.63
2018-07-28T14:28:35.838Z,4.83
2018-07-28T14:31:04.554Z,5.43
2018-07-28T14:33:33.331Z,5.07
2018-07-28T14:36:02.075Z,4.13
2018-07-28T14:38:31.068Z,5.03
2018-07-28T14:41:00.095Z,3.00
2018-07-28T14:43:29.095Z,2.73
2018-07-28T14:45:57.814Z,2.50
2018-07-28T14:48:26.938Z,2.80
2018-07-28T14:50:56.131Z,2.30
2018-07-28T14:53:25.385Z,2.70
2018-07-28T14:55:54.562Z,2.07
2018-07-28T14:58:23.802Z,3.40
2018-07-28T15:00:52.527Z,2.80
2018-07-28T15:03:21.296Z,2.63
2018-07-28T15:05:50.009Z,2.90
2018-07-28T15:08:19.748Z,3.40
2018-07-28T15:10:48.436Z,3.60
2018-07-28T15:13:17.133Z,3.90
2018-07-28T15:15:45.875Z,4.20
2018-07-28T15:18:14.878Z,5.40
2018-07-28T15:20:44.181Z,4.87
2018-07-28T15:23:12.910Z,5.77
2018-07-28T15:25:41.695Z,5.93
2018-07-28T15:28:16.845Z,6.07
2018-07-28T15:30:45.622Z,5.83
2018-07-28T15:33:14.337Z,6.50
2018-07-28T15:35:43.370Z,6.30
2018-07-28T15:38:12.430Z,6.10
2018-07-28T15:40:41.775Z,6.40
2018-07-28T15:43:10.774Z,6.27
2018-07-28T15:45:40.436Z,7.30
2018-07-28T15:48:09.850Z,6.60
2018-07-28T15:50:38.552Z,6.30
2018-07-28T15:53:07.642Z,6.70
2018-07-28T15:55:36.677Z,6.63
2018-07-28T15:58:05.734Z,7.00
2018-07-28T16:00:34.478Z,6.20
2018-07-28T16:03:03.797Z,7.00
2018-07-28T16:05:32.788Z,6.90
2018-07-28T16:08:01.901Z,6.37
2018-07-28T16:10:31.346Z,6.80
2018-07-28T16:13:00.413Z,7.83
2018-07-28T16:15:29.366Z,8.57
2018-07-28T16:17:58.594Z,8.77
2018-07-28T16:20:27.310Z,7.30
2018-07-28T16:22:56.015Z,8.70
2018-07-28T16:25:25.117Z,8.53
2018-07-28T16:27:54.174Z,9.37
2018-07-28T16:30:22.973Z,8.80
2018-07-28T16:32:52.016Z,8.73
2018-07-28T16:35:21.496Z,9.07
2018-07-28T16:37:50.558Z,9.93
2018-07-28T16:40:19.344Z,8.80
2018-07-28T16:42:48.346Z,9.50
2018-07-28T16:45:17.606Z,9.80
2018-07-28T16:47:46.303Z,8.80
2018-07-28T16:50:15.040Z,10.30
2018-07-28T16:52:44.342Z,9.73
2018-07-28T16:55:13.475Z,9.63
2018-07-28T16:57:42.635Z,8.57
2018-07-28T17:00:11.426Z,10.13
2018-07-28T17:02:41.015Z,9.00
2018-07-28T17:05:10.117Z,8.13
2018-07-28T17:07:39.090Z,7.87
2018-07-28T17:10:08.237Z,7.23
2018-07-28T17:12:37.001Z,8.00
2018-07-28T17:15:06.789Z,6.30
2018-07-28T17:17:35.826Z,6.20
2018-07-28T17:20:05.329Z,7.70
2018-07-28T17:22:34.075Z,9.93
2018-07-28T17:25:03.448Z,6.60
2018-07-28T17:27:32.362Z,6.77
2018-07-28T17:30:01.067Z,3.90
2018-07-28T17:32:29.938Z,5.97
2018-07-28T17:34:59.435Z,4.13
2018-07-28T17:37:28.259Z,5.27
2018-07-28T17:39:57.021Z,5.30
2018-07-28T17:42:26.037Z,5.20
2018-07-28T17:44:55.464Z,4.50
2018-07-28T17:47:24.386Z,3.20
2018-07-28T17:49:53.170Z,2.60
2018-07-28T17:52:22.139Z,3.33
2018-07-28T17:54:50.955Z,2.50
2018-07-28T17:57:20.021Z,3.87
2018-07-28T17:59:48.998Z,3.73
2018-07-28T18:02:17.738Z,1.50
2018-07-28T18:04:46.497Z,2.10
2018-07-28T18:07:15.206Z,2.23
2018-07-28T18:09:44.273Z,1.87
2018-07-28T18:12:13.491Z,1.90
2018-07-28T18:14:42.215Z,1.90
2018-07-28T18:17:11.177Z,2.57
2018-07-28T18:19:39.982Z,2.07
2018-07-28T18:22:08.738Z,1.40
2018-07-28T18:24:37.519Z,1.30
2018-07-28T18:27:06.655Z,1.80
2018-07-28T18:29:35.390Z,1.50
2018-07-28T18:32:04.093Z,1.70
2018-07-28T18:34:33.588Z,1.50
2018-07-28T18:37:08.782Z,1.53
2018-07-28T18:39:37.782Z,2.03
2018-07-28T18:42:06.783Z,1.50
2018-07-28T18:44:41.821Z,1.60
2018-07-28T18:47:10.538Z,2.03
2018-07-28T18:49:39.227Z,1.60
2018-07-28T18:52:08.701Z,1.30
2018-07-28T18:54:37.394Z,1.33
2018-07-28T18:57:06.488Z,1.87
2018-07-28T18:59:36.282Z,1.50
2018-07-28T19:02:05.611Z,1.40
2018-07-28T19:04:34.409Z,2.03
2018-07-28T19:07:03.198Z,1.83
2018-07-28T19:09:51.638Z,1.97
2018-07-28T19:12:25.936Z,1.83
2018-07-28T19:14:54.655Z,2.23
2018-07-28T19:17:26.571Z,1.90
2018-07-28T19:19:55.667Z,1.53
2018-07-28T19:22:29.948Z,1.43
2018-07-28T19:24:59.051Z,1.93
2018-07-28T19:27:27.747Z,1.40
2018-07-28T19:29:57.050Z,1.80
2018-07-28T19:32:24.689Z,1.83
2018-07-28T19:34:53.443Z,1.13
2018-07-28T19:37:24.945Z,1.47
2018-07-28T19:39:56.628Z,2.30
2018-07-28T19:42:32.800Z,1.50
2018-07-28T19:45:02.852Z,1.30
2018-07-28T19:47:31.810Z,1.70
2018-07-28T19:50:02.814Z,1.97
2018-07-28T19:52:33.492Z,1.50
2018-07-28T19:55:04.780Z,1.97
2018-07-28T19:57:36.243Z,1.70
2018-07-28T20:00:05.993Z,2.10
2018-07-28T20:02:35.877Z,1.40
2018-07-28T20:05:05.806Z,1.90
2018-07-28T20:07:35.918Z,1.73
2018-07-28T20:10:07.127Z,1.80
2018-07-28T20:12:35.969Z,3.00
2018-07-28T20:15:05.087Z,1.87
2018-07-28T20:17:34.312Z,2.23
2018-07-28T20:20:03.059Z,2.40
2018-07-28T20:22:32.056Z,2.73
2018-07-28T20:25:01.175Z,1.97
2018-07-28T20:27:29.948Z,4.63
2018-07-28T20:29:58.742Z,1.30
2018-07-28T20:32:30.004Z,1.73
2018-07-28T20:34:58.854Z,1.80
2018-07-28T20:37:27.611Z,1.93
2018-07-28T20:39:57.497Z,2.00
2018-07-28T20:42:26.420Z,1.37
2018-07-28T20:44:55.567Z,2.10
2018-07-28T20:47:25.447Z,1.47
2018-07-28T20:49:54.658Z,1.67
2018-07-28T20:52:24.458Z,2.00
2018-07-28T20:54:53.327Z,2.27
2018-07-28T20:57:22.267Z,2.20
2018-07-28T20:59:51.019Z,1.80
2018-07-28T21:02:19.789Z,2.07
2018-07-28T21:04:48.555Z,2.10
2018-07-28T21:07:17.577Z,1.13
2018-07-28T21:09:46.735Z,1.70
2018-07-28T21:12:15.699Z,1.30
2018-07-28T21:14:44.734Z,1.50
2018-07-28T21:17:13.929Z,1.83
2018-07-28T21:19:42.809Z,2.37
2018-07-28T21:22:12.655Z,1.70
2018-07-28T21:24:41.611Z,1.83
2018-07-28T21:27:17.392Z,2.03
2018-07-28T21:29:46.630Z,2.00
2018-07-28T21:32:16.101Z,1.20
2018-07-28T21:34:46.245Z,1.60
2018-07-28T21:37:15.637Z,2.20
2018-07-28T21:39:44.910Z,1.17
2018-07-28T21:42:14.044Z,1.70
2018-07-28T21:44:43.140Z,1.67
2018-07-28T21:47:12.043Z,2.70
2018-07-28T21:49:40.884Z,2.20
2018-07-28T21:52:09.662Z,2.17
2018-07-28T21:54:38.373Z,1.50
2018-07-28T21:57:07.440Z,1.60
2018-07-28T21:59:36.815Z,1.50
2018-07-28T22:02:05.659Z,1.97
2018-07-28T22:04:36.684Z,1.43
2018-07-28T22:07:05.504Z,1.60
2018-07-28T22:09:34.514Z,1.67
2018-07-28T22:12:04.356Z,1.83
2018-07-28T22:14:33.371Z,1.40
2018-07-28T22:17:02.486Z,2.03
2018-07-28T22:19:31.866Z,1.50
2018-07-28T22:22:00.987Z,2.10
2018-07-28T22:24:29.807Z,2.47
2018-07-28T22:26:58.518Z,1.47
2018-07-28T22:29:27.381Z,1.20
2018-07-28T22:31:56.734Z,1.60
2018-07-28T22:34:25.693Z,1.10
2018-07-28T22:36:54.572Z,1.30
2018-07-28T22:39:23.713Z,1.57
2018-07-28T22:41:52.535Z,1.70
2018-07-28T22:44:21.600Z,1.87
2018-07-28T22:46:50.468Z,1.63
2018-07-28T22:49:19.637Z,1.80
2018-07-28T22:51:48.387Z,1.70
2018-07-28T22:54:17.899Z,1.97
2018-07-28T22:56:46.693Z,2.03
2018-07-28T22:59:16.607Z,1.90
2018-07-28T23:01:45.650Z,1.90
2018-07-28T23:04:14.455Z,1.30
2018-07-28T23:06:43.199Z,1.57
2018-07-28T23:09:16.095Z,1.80
2018-07-28T23:11:44.893Z,1.87
2018-07-28T23:14:13.772Z,2.83
2018-07-28T23:16:42.503Z,2.97
2018-07-28T23:19:11.551Z,1.90
2018-07-28T23:21:40.662Z,2.27
2018-07-28T23:24:10.685Z,1.37
2018-07-28T23:26:39.947Z,2.73
2018-07-28T23:29:08.822Z,1.73
2018-07-28T23:31:38.204Z,2.43
2018-07-28T23:34:07.646Z,2.00
2018-07-28T23:36:36.525Z,2.13
2018-07-28T23:39:07.813Z,1.80
2018-07-28T23:41:36.707Z,1.63
2018-07-28T23:44:05.824Z,2.10
2018-07-28T23:46:35.654Z,2.43
2018-07-28T23:49:05.579Z,2.70
2018-07-28T23:51:34.507Z,2.13
2018-07-28T23:54:03.559Z,1.90
2018-07-28T23:56:32.281Z,3.10
2018-07-28T23:59:01.120Z,2.47
